Tiempo atmosférico en la estación meteorológica de Campos, Can Sion, Illes Balears (40 m.)



Fecha
DESCASC
Temp. máxima en grados centígrados (hora)
DESCASC
Temp. mínima en grados centígrados (hora)
DESCASC
Temp. media en grados centígrados
DESCASC
Racha de viento máxima en m/sg (hora)
DESCASC
Velocidad máxima media en intervalos de 10 minutos(hora)
DESCASC
Precipitaciones diarias en mm
DESCASC
Precipitaciones de 00:00 a 06:00 en mm
DESCASC
Precipitaciones de 06:00 a 12:00 en mm
DESCASC
Precipitaciones de 12:00 a 18:00 en mm
DESCASC
Precipitaciones de 18:00 a 24:00 en mm
DESCASC
22-04-2019 16.2 (14:20) 13.3 (01:40) 14.8 13.06 (01:10) 6.11 (01:10) 5.2 1.6 2.4 0.8 0.4
21-04-2019 16.9 (14:50) 13.7 (22:40) 15.3 11.94 (20:30) 6.11 (18:20) 5 0 0.2 0.2 4.6
20-04-2019 19 (14:50) 15.2 (23:59) 17.1 18.06 (06:00) 9.72 (12:40) 0 0 0 0 0
19-04-2019 16.2 (14:30) 14.5 (05:50) 15.4 15.28 (15:30) 6.39 (19:20) 0.8 0.8 0 0 0
18-04-2019 20.6 (12:50) 13.1 (00:00) 16.9 16.11 (14:00) 9.44 (14:00) 0 0 0 0 0
17-04-2019 21.2 (14:30) 6.9 (00:00) 14.1 10 (17:30) 6.11 (16:40) 0 0 0 0 0
16-04-2019 21.7 (13:20) 6.9 (00:00) 14.3 6.67 (13:30) 4.17 (14:10) 1.2 0 1.2 0 0
15-04-2019 20.7 (14:00) 6.3 (00:00) 13.5 9.17 (15:10) 5.56 (17:00) 0 0 0 0 0
14-04-2019 23.7 (14:20) 6.6 (00:00) 15.2 8.61 (13:50) 5 (10:40) 0 0 0 0 0
13-04-2019 19.6 (13:30) 3.4 (00:00) 11.5 9.72 (16:20) 6.11 (15:50) 0 0 0 0 0
12-04-2019 19.4 (11:50) 7.3 (00:00) 13.3 7.78 (13:00) 4.17 (13:00) 0.2 0 0.2 0 0
11-04-2019 21 (15:40) 6.1 (00:00) 13.5 11.11 (17:10) 6.11 (15:20) 0 0 0 0 0
10-04-2019 19.9 (14:30) 8.2 (00:00) 14 8.61 (17:30) 5 (17:30) 11 0 3.2 3 4.8
09-04-2019 21.4 (13:30) 6.5 (00:00) 13.9 10.83 (16:10) 6.39 (16:20) 0 0 0 0 0
08-04-2019 20.1 (15:40) 2.3 (00:00) 11.2 10.56 (17:10) 6.11 (15:30) 0 0 0 0 0
07-04-2019 17.7 (16:20) 5.1 (00:00) 11.4 10.83 (15:40) 6.11 (16:10) 0.2 0 0 0.2 0
06-04-2019 16.5 (17:00) 8.8 (00:00) 12.7 13.06 (13:30) 6.94 (15:40) 2.8 2.8 0 0 0
05-04-2019 19.2 (14:30) 0.3 (00:00) 9.8 9.44 (17:50) 5.28 (17:50) 0.8 0 0 0 0.8
04-04-2019 19.3 (15:50) 7.5 (00:00) 13.4 10 (01:30) 5.28 (18:50) 1.4 1.4 0 0 0
03-04-2019 19.9 (14:30) 11.2 (00:00) 15.5 8.89 (14:40) 5.28 (14:10) 0 0 0 0 0
02-04-2019 19.4 (16:40) 4.9 (00:00) 12.1 8.33 (14:20) 5 (15:20) 0 0 0 0 0
01-04-2019 21.8 (15:00) 10.8 (00:00) 16.3 6.67 (16:30) 4.17 (16:20) 0 0 0 0 0
31-03-2019 18.3 (12:50) 8.6 (00:00) 13.4 10.56 (13:50) 6.67 (12:40) 0.2 0 0 0 0.2
30-03-2019 19.7 (12:40) 4.4 (00:00) 12.1 9.17 (13:30) 4.72 (13:20) 0 0 0 0 0
29-03-2019 19.4 (14:30) -0.8 (-00:0) 9.3 8.89 (11:50) 4.72 (15:30) 0 0 0 0 0
28-03-2019 21 (13:40) -0.7 (-00:0) 10.2 9.17 (12:00) 4.72 (12:10) 0 0 0 0 0
27-03-2019 19 (12:50) -0.4 (00:00) 9.3 10 (12:40) 5 (13:40) 0 0 0 0 0
26-03-2019 16.3 (12:30) 1.7 (00:00) 9 16.11 (11:50) 7.5 (11:50) 0 0 0 0 0
25-03-2019 22.9 (12:20) 2.7 (00:00) 12.8 9.17 (13:50) 5.56 (14:00) 0 0 0 0 0

Gráficas

Temp. máximas Temp. mínimas Temp. medias Precipitaciones Rachas de viento máximas Velocidades máximas media en intervalos de 10 minutos

Datos horarios

Fecha y hora oficial Temperatura (ºC) Velocidad del viento (km/h) Dirección del viento Racha (km/h) Dirección de racha Precipitación (mm) Presión (hPa) Tendencia (hPa) Humedad (%)
2019-04-23 23:00:00 15.6 17 Sudoeste 30 Sudoeste 0 -- -- 87
2019-04-23 22:00:00 15.6 12 Sudoeste 31 Sur 0 -- -- 87
2019-04-23 21:00:00 15.4 8 Sudoeste 25 Sudoeste 0 -- -- 87
2019-04-23 20:00:00 16.4 13 Sudoeste 36 Sudoeste 0 -- -- 83
2019-04-23 19:00:00 18.2 23 Sudoeste 38 Sudoeste 0 -- -- 76
2019-04-23 18:00:00 17.9 20 Sudoeste 50 Sudoeste 0 -- -- 77
2019-04-23 17:00:00 19.3 25 Sudoeste 50 Sudoeste 0 -- -- 74
2019-04-23 16:00:00 19.7 18 Sudoeste 34 Sur 0 -- -- 76
2019-04-23 15:00:00 19.4 13 Sudoeste 30 Sudoeste 0 -- -- 76
2019-04-23 14:00:00 19 16 Sudoeste 27 Sudoeste 0 -- -- 78
2019-04-23 13:00:00 18.2 13 Sudoeste 26 Oeste 0 -- -- 81
2019-04-23 12:00:00 17.9 11 Sudoeste 26 Sudoeste 0 -- -- 80
2019-04-23 11:00:00 18.4 14 Sudoeste 26 Sudoeste 0 -- -- 79
2019-04-23 10:00:00 16.6 15 Sudoeste 28 Sudoeste 0 -- -- 84
2019-04-23 09:00:00 15.1 9 Sudoeste 16 Sudoeste 0 -- -- 93
2019-04-23 08:00:00 13.2 4 Sudoeste 13 Oeste 0 -- -- 96
2019-04-23 07:00:00 13.3 10 Oeste 25 Oeste 0 -- -- 96
2019-04-23 06:00:00 13.2 10 Oeste 23 Noroeste 0 -- -- 96
2019-04-23 05:00:00 13.6 11 Oeste 30 Oeste 0.2 -- -- 96
2019-04-23 04:00:00 14.1 16 Oeste 33 Oeste 0.2 -- -- 97
2019-04-23 03:00:00 14.4 14 Oeste 27 Oeste 0.2 -- -- 97
2019-04-23 02:00:00 14.5 8 Oeste 17 Oeste 0 -- -- 98
2019-04-23 01:00:00 14.7 5 Sudoeste 10 Oeste 0 -- -- 99
2019-04-23 00:00:00 14.8 2 Oeste 9 Oeste 0 -- -- 99
2019-04-22 23:00:00 14.9 5 Noroeste 13 Oeste 0.2 -- -- 99
2019-04-22 22:00:00 14.8 6 Noroeste 15 Noroeste 0.2 -- -- 99
2019-04-22 21:00:00 14.8 8 Noroeste 17 Noroeste 0 -- -- 99
2019-04-22 20:00:00 14.8 9 Noroeste 18 Norte 0 -- -- 98
2019-04-22 19:00:00 15.2 8 Noroeste 15 Noroeste 0 -- -- 98
2019-04-22 18:00:00 15.3 8 Norte 22 Norte 0 -- -- 98
2019-04-22 17:00:00 15.4 9 Norte 23 Norte 0 -- -- 98
2019-04-22 16:00:00 15.4 9 Norte 24 Norte 0 -- -- 98
2019-04-22 15:00:00 15.7 9 Norte 27 Norte 0 -- -- 98
2019-04-22 14:00:00 15.5 9 Norte 22 Norte 0.4 -- -- 98
2019-04-22 13:00:00 15.5 6 Norte 18 Nordeste 0.4 -- -- 98
2019-04-22 12:00:00 15.9 9 Nordeste 19 Norte 0.2 -- -- 99
2019-04-22 11:00:00 15.2 7 Nordeste 16 Norte 0.4 -- -- 99
2019-04-22 10:00:00 14.8 8 Nordeste 20 Nordeste 0.2 -- -- 99
2019-04-22 09:00:00 14.6 10 Nordeste 37 Nordeste 0.6 -- -- 99
2019-04-22 08:00:00 14.5 15 Nordeste 30 Nordeste 0.4 -- -- 99
2019-04-22 07:00:00 14 10 Nordeste 26 Nordeste 0.6 -- -- 98
2019-04-22 06:00:00 13.7 10 Nordeste 33 Nordeste 0.2 -- -- 98
2019-04-22 05:00:00 13.8 14 Nordeste 33 Nordeste 0.2 -- -- 98
2019-04-22 04:00:00 13.8 11 Nordeste 30 Nordeste 0 -- -- 98
2019-04-22 03:00:00 13.8 11 Nordeste 31 Nordeste 0 -- -- 98
2019-04-22 02:00:00 13.5 14 Nordeste 47 Norte 0 -- -- 98
2019-04-22 01:00:00 13.7 15 Nordeste 34 Nordeste 1.2 -- -- 98
2019-04-22 00:00:00 14.3 15 Este 30 Nordeste 1.6 -- -- 98
2019-04-21 23:00:00 14 11 Nordeste 32 Nordeste 1.2 -- -- 97
2019-04-21 22:00:00 14 14 Nordeste 37 Este 0.8 -- -- 96
2019-04-21 21:00:00 14.1 21 Nordeste 43 Nordeste 0.4 -- -- 96
2019-04-21 20:00:00 14.1 21 Nordeste 42 Este 0.6 -- -- 95
2019-04-21 19:00:00 14.6 20 Nordeste 38 Este 0 -- -- 93
2019-04-21 18:00:00 14.8 16 Nordeste 37 Nordeste 0 -- -- 94
2019-04-21 17:00:00 15.2 17 Nordeste 36 Este 0.2 -- -- 91
2019-04-21 16:00:00 15.7 16 Este 39 Este 0 -- -- 87
2019-04-21 15:00:00 16.9 17 Nordeste 35 Nordeste 0 -- -- 83
2019-04-21 14:00:00 16.3 16 Nordeste 36 Nordeste 0 -- -- 85
2019-04-21 13:00:00 16.2 17 Nordeste 36 Nordeste 0 -- -- 86
2019-04-21 12:00:00 15.6 16 Nordeste 31 Este 0 -- -- 91
2019-04-21 11:00:00 15 9 Nordeste 26 Nordeste 0 -- -- 94
2019-04-21 10:00:00 14.5 12 Nordeste 32 Nordeste 0.2 -- -- 95
2019-04-21 09:00:00 14.4 12 Nordeste 27 Nordeste 0 -- -- 94
2019-04-21 08:00:00 14.4 11 Nordeste 29 Nordeste 0 -- -- 92
2019-04-21 07:00:00 14.8 14 Este 28 Nordeste 0 -- -- 90
2019-04-21 06:00:00 14.7 10 Nordeste 27 Nordeste 0 -- -- 90
2019-04-21 05:00:00 14.8 14 Nordeste 30 Este 0 -- -- 90
2019-04-21 04:00:00 14.7 12 Nordeste 28 Nordeste 0 -- -- 90
2019-04-21 03:00:00 14.5 14 Nordeste 28 Este 0 -- -- 91
2019-04-21 02:00:00 14.4 13 Nordeste 28 Este 0 -- -- 90
2019-04-21 01:00:00 14.9 15 Este 32 Este 0 -- -- 86
2019-04-21 00:00:00 15.2 14 Nordeste 47 Este 0 -- -- 80
2019-04-20 23:00:00 15.5 19 Nordeste 48 Este 0 -- -- 76
2019-04-20 22:00:00 15.7 23 Este 49 Este 0 -- -- 74
2019-04-20 21:00:00 15.9 21 Este 42 Nordeste 0 -- -- 73
2019-04-20 20:00:00 16 20 Nordeste 39 Nordeste 0 -- -- 73
2019-04-20 19:00:00 16.1 19 Nordeste 43 Nordeste 0 -- -- 73
2019-04-20 18:00:00 16.6 29 Este 55 Este 0 -- -- 70
2019-04-20 17:00:00 16.8 24 Este 48 Nordeste 0 -- -- 69
2019-04-20 16:00:00 17.4 24 Este 57 Nordeste 0 -- -- 67
2019-04-20 15:00:00 18.7 28 Este 57 Este 0 -- -- 65
2019-04-20 14:00:00 18.3 27 Nordeste 60 Nordeste 0 -- -- 66
2019-04-20 13:00:00 17.1 30 Nordeste 60 Nordeste 0 -- -- 65
2019-04-20 12:00:00 16.9 24 Nordeste 54 Nordeste 0 -- -- 67
2019-04-20 11:00:00 16.5 27 Nordeste 53 Este 0 -- -- 66
2019-04-20 10:00:00 15.8 27 Este 53 Este 0 -- -- 70
2019-04-20 09:00:00 16.1 31 Este 58 Este 0 -- -- 66
2019-04-20 08:00:00 15.7 23 Nordeste 61 Este 0 -- -- 68
2019-04-20 07:00:00 15.8 33 Este 63 Nordeste 0 -- -- 71
2019-04-20 06:00:00 15.8 31 Este 65 Nordeste 0 -- -- 71
2019-04-20 05:00:00 15.7 25 Nordeste 61 Este 0 -- -- 70
2019-04-20 04:00:00 15.8 23 Nordeste 53 Nordeste 0 -- -- 70
2019-04-20 03:00:00 15.7 17 Nordeste 41 Nordeste 0 -- -- 71
2019-04-20 02:00:00 15.7 15 Nordeste 39 Nordeste 0 -- -- 72
2019-04-20 01:00:00 15.7 17 Nordeste 44 Nordeste 0 -- -- 74
2019-04-20 00:00:00 15.8 16 Nordeste 36 Nordeste 0 -- -- 78
2019-04-19 23:00:00 15.9 14 Nordeste 37 Nordeste 0 -- -- 79
2019-04-19 22:00:00 15.8 17 Nordeste 35 Este 0 -- -- 82
2019-04-19 21:00:00 15.8 16 Nordeste 44 Este 0 -- -- 86
2019-04-19 20:00:00 15.9 19 Nordeste 42 Nordeste 0 -- -- 87
2019-04-19 19:00:00 15.9 19 Nordeste 44 Nordeste 0 -- -- 86
2019-04-19 18:00:00 15.9 17 Nordeste 43 Este 0 -- -- 86
2019-04-19 17:00:00 16 18 Nordeste 46 Este 0 -- -- 86
2019-04-19 16:00:00 16 16 Nordeste 55 Nordeste 0 -- -- 86
2019-04-19 15:00:00 16.1 18 Nordeste 42 Nordeste 0 -- -- 86
2019-04-19 14:00:00 16 19 Nordeste 40 Este 0 -- -- 87
2019-04-19 13:00:00 15.8 21 Nordeste 41 Este 0 -- -- 88
2019-04-19 12:00:00 15.5 19 Nordeste 41 Nordeste 0 -- -- 90
2019-04-19 11:00:00 15.1 21 Nordeste 43 Este 0 -- -- 94
2019-04-19 10:00:00 15 19 Nordeste 39 Nordeste 0 -- -- 96
2019-04-19 09:00:00 14.8 18 Este 39 Este 0 -- -- 97
2019-04-19 08:00:00 14.5 20 Nordeste 37 Este 0 -- -- 98
2019-04-19 07:00:00 14.5 17 Este 32 Este 0 -- -- 97
2019-04-19 06:00:00 14.5 14 Nordeste 23 Nordeste 0.4 -- -- 97
2019-04-19 05:00:00 14.6 12 Este 22 Este 0.4 -- -- 96
2019-04-19 04:00:00 14.7 9 Este 23 Este 0 -- -- 94
2019-04-19 03:00:00 15.2 13 Este 27 Este 0 -- -- 90
2019-04-19 02:00:00 15.6 14 Este 32 Este 0 -- -- 88
2019-04-19 01:00:00 15.7 14 Este 30 Nordeste 0 -- -- 86
2019-04-19 00:00:00 15.7 17 Este 29 Este 0 -- -- 86
2019-04-18 23:00:00 15.6 15 Este 35 Este 0 -- -- 85
2019-04-18 22:00:00 15.7 18 Este 36 Este 0 -- -- 85
2019-04-18 21:00:00 15.7 18 Este 41 Este 0 -- -- 85
2019-04-18 20:00:00 15.8 26 Este 50 Este 0 -- -- 83
2019-04-18 19:00:00 16.2 13 Este 54 Nordeste 0 -- -- 82
2019-04-18 18:00:00 17 23 Este 53 Este 0 -- -- 78
2019-04-18 17:00:00 18.6 23 Este 49 Este 0 -- -- 72
2019-04-18 16:00:00 18.1 24 Este 54 Este 0 -- -- 73
2019-04-18 15:00:00 18.5 24 Este 54 Nordeste 0 -- -- 72
2019-04-18 14:00:00 19.2 34 Este 58 Este 0 -- -- 69
2019-04-18 13:00:00 20.4 22 Este 50 Nordeste 0 -- -- 65
2019-04-18 12:00:00 18.9 23 Este 52 Nordeste 0 -- -- 72
2019-04-18 11:00:00 18.3 24 Este 39 Este 0 -- -- 73
2019-04-18 10:00:00 17.6 9 Nordeste 44 Este 0 -- -- 77
2019-04-18 09:00:00 15.6 18 Este 34 Este 0 -- -- 84
2019-04-18 08:00:00 14.8 15 Nordeste 32 Nordeste 0 -- -- 87
2019-04-18 07:00:00 14.5 14 Este 43 Nordeste 0 -- -- 87
2019-04-18 06:00:00 14.2 8 Nordeste 28 Este 0 -- -- 85
2019-04-18 05:00:00 13.9 10 Nordeste 27 Nordeste 0 -- -- 86
2019-04-18 04:00:00 13.7 12 Nordeste 31 Este 0 -- -- 89
2019-04-18 03:00:00 13.7 10 Nordeste 30 Nordeste 0 -- -- 91
2019-04-18 02:00:00 13.5 9 Nordeste 22 Nordeste 0 -- -- 91
2019-04-18 01:00:00 13.2 6 Nordeste 19 Nordeste 0 -- -- 90
2019-04-18 00:00:00 13.1 6 Nordeste 15 Nordeste 0 -- -- 91
2019-04-17 23:00:00 13 4 Nordeste 13 Este 0 -- -- 90
2019-04-17 22:00:00 13.2 6 Nordeste 16 Nordeste 0 -- -- 88
2019-04-17 21:00:00 13.9 8 Nordeste 23 Este 0 -- -- 85
2019-04-17 20:00:00 15.1 13 Este 27 Nordeste 0 -- -- 79
2019-04-17 19:00:00 17.1 16 Este 32 Este 0 -- -- 71
2019-04-17 18:00:00 18.1 17 Este 36 Este 0 -- -- 68
2019-04-17 17:00:00 19.3 22 Este 35 Este 0 -- -- 64
2019-04-17 16:00:00 20.4 20 Este 32 Este 0 -- -- 60
2019-04-17 15:00:00 20.5 17 Este 32 Este 0 -- -- 60
2019-04-17 14:00:00 20.7 16 Este 25 Este 0 -- -- 59
2019-04-17 13:00:00 20.7 11 Este 29 Este 0 -- -- 61
2019-04-17 12:00:00 19.8 15 Este 26 Este 0 -- -- 63
2019-04-17 11:00:00 18.7 12 Este 27 Este 0 -- -- 67
2019-04-17 10:00:00 16.5 12 Este 22 Este 0 -- -- 88
2019-04-17 09:00:00 12.2 4 Nordeste 8 Nordeste 0 -- -- 99
2019-04-17 08:00:00 8.1 0 Calma 6 Este 0 -- -- 99
2019-04-17 07:00:00 8.3 4 Este 9 Norte 0 -- -- 98
2019-04-17 06:00:00 7.7 2 Nordeste 6 Nordeste 0 -- -- 98
2019-04-17 05:00:00 7 3 Este 5 Este 0 -- -- 97
2019-04-17 04:00:00 7.4 3 Este 4 Este 0 -- -- 96
2019-04-17 03:00:00 8.2 3 Este 6 Nordeste 0 -- -- 96
2019-04-17 02:00:00 7.4 3 Este 4 Este 0 -- -- 94
2019-04-17 01:00:00 8.1 3 Este 4 Sudeste 0 -- -- 93
2019-04-17 00:00:00 9.2 0 Calma 7 Nordeste 0 -- -- 91
2019-04-16 23:00:00 9.9 4 Nordeste 7 Nordeste 0 -- -- 90
2019-04-16 22:00:00 11 0 Calma 4 Nordeste 0 -- -- 82
2019-04-16 21:00:00 13.6 2 Nordeste 11 Este 0 -- -- 72
2019-04-16 20:00:00 16 8 Este 20 Este 0 -- -- 62
2019-04-16 19:00:00 18.9 13 Este 19 Este 0 -- -- 55
2019-04-16 18:00:00 20.1 10 Sudeste 21 Este 0 -- -- 53
2019-04-16 17:00:00 20.4 8 Sur 17 Sudeste 0 -- -- 55
2019-04-16 16:00:00 20.2 8 Sudeste 18 Sur 0 -- -- 54
2019-04-16 15:00:00 21.2 10 Sur 23 Sudoeste 0 -- -- 52
2019-04-16 14:00:00 21 11 Sudoeste 24 Sudoeste 0 -- -- 54
2019-04-16 13:00:00 21 7 Sur 20 Sudoeste 0 -- -- 56
2019-04-16 12:00:00 20.6 4 Sur 11 Este 0 -- -- 55
2019-04-16 11:00:00 18.4 3 Nordeste 10 Sudoeste 0 -- -- 63
2019-04-16 10:00:00 15.6 3 Este 13 Este 0 -- -- 92
2019-04-16 09:00:00 13 4 Nordeste 12 Noroeste 0.2 -- -- 99
2019-04-16 08:00:00 11.3 4 Este 22 Este 0 -- -- 97
2019-04-16 07:00:00 10.6 0 Calma 15 Nordeste 1 -- -- 97
2019-04-16 06:00:00 10.7 5 Norte 21 Este 0 -- -- 96
2019-04-16 05:00:00 9.6 3 Nordeste 14 Norte 0 -- -- 96
2019-04-16 04:00:00 9.1 5 Nordeste 12 Nordeste 0 -- -- 95
2019-04-16 03:00:00 7.5 3 Nordeste 6 Nordeste 0 -- -- 94
2019-04-16 02:00:00 6.9 2 Norte 4 Norte 0 -- -- 90
2019-04-16 01:00:00 7.9 3 Este 4 Este 0 -- -- 88
2019-04-16 00:00:00 9.1 0 Calma 7 Este 0 -- -- 85
2019-04-15 23:00:00 11.6 2 Nordeste 11 Nordeste 0 -- -- 81
2019-04-15 22:00:00 12.6 5 Nordeste 12 Nordeste 0 -- -- 77
2019-04-15 21:00:00 13.9 5 Este 26 Este 0 -- -- 69
2019-04-15 20:00:00 15.4 13 Este 20 Este 0 -- -- 56
2019-04-15 19:00:00 16.6 11 Este 27 Sudeste 0 -- -- 45
2019-04-15 18:00:00 18.1 17 Este 31 Este 0 -- -- 36
2019-04-15 17:00:00 19.7 20 Este 30 Este 0 -- -- 33
2019-04-15 16:00:00 19.7 17 Este 33 Este 0 -- -- 36
2019-04-15 15:00:00 20 17 Sudeste 32 Este 0 -- -- 34
2019-04-15 14:00:00 20.7 19 Sudeste 33 Sudeste 0 -- -- 34
2019-04-15 13:00:00 20.5 16 Este 32 Este 0 -- -- 38
2019-04-15 12:00:00 20.2 16 Este 27 Este 0 -- -- 45
2019-04-15 11:00:00 19.6 12 Este 23 Este 0 -- -- 46
2019-04-15 10:00:00 17.8 13 Este 22 Este 0 -- -- 55
2019-04-15 09:00:00 13.1 3 Norte 8 Norte 0 -- -- 91
2019-04-15 08:00:00 7.7 0 Calma 5 Nordeste 0 -- -- 96
2019-04-15 07:00:00 6.6 3 Nordeste 5 Nordeste 0 -- -- 92
2019-04-15 06:00:00 7.3 0 Calma 3 Nordeste 0 -- -- 89
2019-04-15 05:00:00 9 2 Norte 9 Este 0 -- -- 87
2019-04-15 04:00:00 11.5 4 Este 12 Nordeste 0 -- -- 79
2019-04-15 03:00:00 12.8 5 Este 21 Este 0 -- -- 76
2019-04-15 02:00:00 13 11 Este 18 Este 0 -- -- 78
2019-04-15 01:00:00 12.5 5 Este 15 Este 0 -- -- 86
2019-04-15 00:00:00 13 9 Este 16 Este 0 -- -- 92
2019-04-14 23:00:00 12.8 5 Este 10 Este 0 -- -- 90
2019-04-14 22:00:00 13.1 4 Este 6 Este 0 -- -- 85
2019-04-14 21:00:00 14.8 3 Este 16 Sudeste 0 -- -- 84
2019-04-14 20:00:00 17.2 8 Sudeste 21 Sudeste 0 -- -- 73
2019-04-14 19:00:00 19.5 11 Sudeste 24 Sudeste 0 -- -- 65
2019-04-14 18:00:00 21.1 12 Sur 24 Sur 0 -- -- 46
2019-04-14 17:00:00 21.2 10 Sur 28 Sudoeste 0 -- -- 54
2019-04-14 16:00:00 21.3 17 Sudoeste 29 Sudoeste 0 -- -- 52
2019-04-14 15:00:00 23.4 15 Sudoeste 27 Sudoeste 0 -- -- 49
2019-04-14 14:00:00 22.5 15 Sudoeste 31 Sudoeste 0 -- -- 48
2019-04-14 13:00:00 21.5 13 Sudoeste 30 Sudoeste 0 -- -- 56
2019-04-14 12:00:00 20 17 Sudoeste 29 Sudoeste 0 -- -- 69
2019-04-14 11:00:00 18.3 18 Sudoeste 30 Oeste 0 -- -- 85
2019-04-14 10:00:00 15.1 8 Sudoeste 14 Oeste 0 -- -- 100
2019-04-14 09:00:00 12.2 0 Calma 2 Sur 0 -- -- 100
2019-04-14 08:00:00 11 2 Este 3 Nordeste 0 -- -- 99
2019-04-14 07:00:00 9.6 0 Calma 4 Este 0 -- -- 99
2019-04-14 06:00:00 8.1 3 Este 4 Este 0 -- -- 99
2019-04-14 05:00:00 6.8 2 Este 5 Este 0 -- -- 97
2019-04-14 04:00:00 6.6 4 Este 5 Este 0 -- -- 97
2019-04-14 03:00:00 7.3 3 Este 4 Este 0 -- -- 96
2019-04-14 02:00:00 7.5 3 Este 4 Este 0 -- -- 96
2019-04-14 01:00:00 7 2 Este 5 Este 0 -- -- 94
2019-04-14 00:00:00 8 3 Este 5 Este 0 -- -- 93
2019-04-13 23:00:00 8.9 2 Este 5 Este 0 -- -- 91
2019-04-13 22:00:00 11.1 0 Calma 6 Oeste 0 -- -- 88
2019-04-13 21:00:00 13.5 3 Sudoeste 17 Sudoeste 0 -- -- 84
2019-04-13 20:00:00 15.6 12 Sudoeste 27 Sudoeste 0 -- -- 77
2019-04-13 19:00:00 17.4 15 Sudoeste 28 Sudoeste 0 -- -- 69
2019-04-13 18:00:00 18.7 15 Sudoeste 32 Sudoeste 0 -- -- 62
2019-04-13 17:00:00 18.8 19 Sudoeste 35 Sudoeste 0 -- -- 60
2019-04-13 16:00:00 19.1 19 Sudoeste 34 Sudoeste 0 -- -- 59
2019-04-13 15:00:00 19.2 19 Sudoeste 31 Sudoeste 0 -- -- 61
2019-04-13 14:00:00 19.4 15 Sudoeste 31 Sudoeste 0 -- -- 57
2019-04-13 13:00:00 19.4 13 Oeste 25 Sudoeste 0 -- -- 55
2019-04-13 12:00:00 19.2 13 Sudoeste 24 Sudoeste 0 -- -- 54
2019-04-13 11:00:00 18 9 Oeste 16 Sudoeste 0 -- -- 63
2019-04-13 10:00:00 14.9 6 Sudoeste 8 Sudoeste 0 -- -- 92
2019-04-13 09:00:00 10.8 2 Este 5 Este 0 -- -- 100
2019-04-13 08:00:00 4.3 4 Este 5 Este 0 -- -- 99
2019-04-13 07:00:00 3.6 3 Este 5 Este 0 -- -- 97
2019-04-13 06:00:00 3.9 3 Este 5 Este 0 -- -- 96
2019-04-13 05:00:00 4.3 3 Este 5 Este 0 -- -- 96
2019-04-13 04:00:00 4.2 3 Este 6 Este 0 -- -- 94
2019-04-13 03:00:00 4.5 0 Calma 4 Este 0 -- -- 94
2019-04-13 02:00:00 5.2 0 Calma 3 Nordeste 0 -- -- 93
2019-04-13 01:00:00 6 2 Nordeste 5 Este 0 -- -- 92
2019-04-13 00:00:00 7.3 2 Nordeste 7 Este 0 -- -- 91
2019-04-12 23:00:00 8.5 4 Este 5 Este 0 -- -- 90
2019-04-12 22:00:00 10 4 Este 7 Sudeste 0 -- -- 84
2019-04-12 21:00:00 12.4 5 Sudeste 9 Sur 0 -- -- 72
2019-04-12 20:00:00 15.1 8 Sudeste 16 Sudeste 0 -- -- 62
2019-04-12 19:00:00 17.4 9 Sur 23 Sudoeste 0 -- -- 53
2019-04-12 18:00:00 17.6 11 Sudeste 25 Sudeste 0 -- -- 53
2019-04-12 17:00:00 17.5 10 Sur 24 Sudoeste 0 -- -- 53
2019-04-12 16:00:00 18.9 10 Sudeste 22 Sur 0 -- -- 52
2019-04-12 15:00:00 16.9 9 Sudeste 22 Sudeste 0 -- -- 57
2019-04-12 14:00:00 17.1 10 Sudeste 24 Sudeste 0 -- -- 55
2019-04-12 13:00:00 18.1 15 Este 28 Este 0 -- -- 55
2019-04-12 12:00:00 19 9 Este 17 Nordeste 0 -- -- 51
2019-04-12 11:00:00 17.4 6 Nordeste 15 Norte 0 -- -- 57
2019-04-12 10:00:00 14.5 5 Nordeste 14 Nordeste 0.2 -- -- 76
2019-04-12 09:00:00 12.7 2 Nordeste 4 Nordeste 0 -- -- 98
2019-04-12 08:00:00 10.4 0 Calma 7 Sudeste 0 -- -- 97
2019-04-12 07:00:00 10 2 Nordeste -- -- 0 -- -- 97
2019-04-12 06:00:00 9.7 2 Este 4 Este 0 -- -- 97
2019-04-12 05:00:00 9.3 3 Sudeste 5 Este 0 -- -- 96
2019-04-12 04:00:00 8.8 4 Este -- -- 0 -- -- 95
2019-04-12 03:00:00 8.5 0 Calma 6 Noroeste 0 -- -- 93
2019-04-12 02:00:00 9.7 3 Oeste 10 Sudoeste 0 -- -- 93
2019-04-12 01:00:00 9.2 4 Sudoeste 10 Nordeste 0 -- -- 93
2019-04-12 00:00:00 8.4 2 Noroeste 5 Oeste 0 -- -- 92
2019-04-11 23:00:00 9.1 2 Sudeste 4 Sudeste 0 -- -- 88
2019-04-11 22:00:00 10.9 3 Sur 8 Sudoeste 0 -- -- 81
2019-04-11 21:00:00 13.1 5 Sudeste 18 Sudoeste 0 -- -- 71
2019-04-11 20:00:00 16.9 8 Oeste 22 Oeste 0 -- -- 43
2019-04-11 19:00:00 19.2 14 Oeste 31 Oeste 0 -- -- 36
2019-04-11 18:00:00 20.2 18 Oeste 40 Oeste 0 -- -- 39
2019-04-11 17:00:00 20.3 19 Oeste 37 Sudoeste 0 -- -- 40
2019-04-11 16:00:00 20.8 19 Oeste 37 Oeste 0 -- -- 39
2019-04-11 15:00:00 19.3 16 Sudoeste 30 Sudoeste 0 -- -- 44
2019-04-11 14:00:00 19.7 16 Sudoeste 31 Sudoeste 0 -- -- 43
2019-04-11 13:00:00 17.4 14 Sudoeste 25 Sudoeste 0 -- -- 58
2019-04-11 12:00:00 18.5 7 Oeste 15 Oeste 0 -- -- 60
2019-04-11 11:00:00 14.2 0 Calma 4 Oeste 0 -- -- 93
2019-04-11 10:00:00 12 2 Noroeste 6 Sudoeste 0 -- -- 99
2019-04-11 09:00:00 8.7 2 Este 4 Norte 0 -- -- 99
2019-04-11 08:00:00 7 0 Calma 4 Nordeste 0 -- -- 99
2019-04-11 07:00:00 6.1 2 Sudeste 7 Nordeste 0 -- -- 97
2019-04-11 06:00:00 7 3 Este 4 Nordeste 0 -- -- 98
2019-04-11 05:00:00 7.1 3 Este 4 Este 0 -- -- 98
2019-04-11 04:00:00 6.7 2 Este 3 Este 0 -- -- 97
2019-04-11 03:00:00 7.6 2 Sudeste 6 Sudoeste 0 -- -- 96
2019-04-11 02:00:00 7.9 3 Este 4 Este 0 -- -- 96
2019-04-11 01:00:00 8.3 3 Este 5 Este 0 -- -- 95
2019-04-11 00:00:00 8.2 2 Sur 5 Sur 0 -- -- 93
2019-04-10 23:00:00 9.3 4 Sur 6 Sur 0 -- -- 92
2019-04-10 22:00:00 10.2 3 Sur 6 Sudoeste 0 -- -- 89
2019-04-10 21:00:00 12 5 Sudoeste 13 Sudoeste 0 -- -- 85
2019-04-10 20:00:00 12.9 8 Sur 21 Sudeste 0 -- -- 88
2019-04-10 19:00:00 11.6 11 Sudeste 25 Este 4.8 -- -- 91
2019-04-10 18:00:00 12.7 10 Este 31 Este 1.6 -- -- 85
2019-04-10 17:00:00 14.9 8 Sur 24 Noroeste 1.4 -- -- 73
2019-04-10 16:00:00 17.9 14 Oeste 29 Sudoeste 0 -- -- 56
2019-04-10 15:00:00 19.8 14 Oeste 30 Sudoeste 0 -- -- 47
2019-04-10 14:00:00 19.2 16 Noroeste 26 Noroeste 0 -- -- 51
2019-04-10 13:00:00 17.1 12 Oeste 30 Oeste 0 -- -- 66
2019-04-10 12:00:00 17.4 13 Oeste 28 Noroeste 0 -- -- 65
2019-04-10 11:00:00 14.8 11 Oeste 22 Noroeste 0 -- -- 86
2019-04-10 10:00:00 10.7 3 Sur 6 Sudoeste 1 -- -- 95
2019-04-10 09:00:00 9.9 7 Noroeste 17 Oeste 1.6 -- -- 92
2019-04-10 08:00:00 10.4 13 Oeste 25 Oeste 0.6 -- -- 90
2019-04-10 07:00:00 8.8 0 Calma 5 Oeste 0 -- -- 92
2019-04-10 06:00:00 9.3 2 Este 9 Sudoeste 0 -- -- 89
2019-04-10 05:00:00 10.2 2 Oeste 13 Sudoeste 0 -- -- 86
2019-04-10 04:00:00 11.6 4 Noroeste 20 Sudoeste 0 -- -- 80
2019-04-10 03:00:00 12.2 6 Sudoeste 14 Oeste 0 -- -- 79
2019-04-10 02:00:00 12.1 7 Sudoeste 18 Sudoeste 0 -- -- 77
2019-04-10 01:00:00 12.8 9 Sudoeste 28 Sudoeste 0 -- -- 72
2019-04-10 00:00:00 13.7 16 Oeste 33 Oeste 0 -- -- 67
2019-04-09 23:00:00 14.1 15 Sudoeste 29 Sudoeste 0 -- -- 82
2019-04-09 22:00:00 13.7 13 Sudoeste 23 Sudoeste 0 -- -- 79
2019-04-09 21:00:00 13.5 8 Sudoeste 17 Sudoeste 0 -- -- 76
2019-04-09 20:00:00 16 9 Oeste 21 Oeste 0 -- -- 51
2019-04-09 19:00:00 18 11 Oeste 36 Sudoeste 0 -- -- 45
2019-04-09 18:00:00 18.2 22 Oeste 37 Sudoeste 0 -- -- 45
2019-04-09 17:00:00 18.5 22 Oeste 39 Oeste 0 -- -- 53
2019-04-09 16:00:00 20.3 18 Oeste 33 Oeste 0 -- -- 44
2019-04-09 15:00:00 20.2 17 Oeste 35 Oeste 0 -- -- 45
2019-04-09 14:00:00 20 19 Oeste 38 Oeste 0 -- -- 46
2019-04-09 13:00:00 20.6 19 Oeste 37 Noroeste 0 -- -- 49
2019-04-09 12:00:00 20.2 18 Oeste 33 Oeste 0 -- -- 51
2019-04-09 11:00:00 18.1 13 Oeste 28 Oeste 0 -- -- 68
2019-04-09 10:00:00 17.1 18 Oeste 36 Sudoeste 0 -- -- 69
2019-04-09 09:00:00 15.8 14 Sudoeste 29 Sudoeste 0 -- -- 89
2019-04-09 08:00:00 13.5 12 Sudoeste 27 Sudoeste 0 -- -- 98
2019-04-09 07:00:00 12.8 11 Sudoeste 20 Sudoeste 0 -- -- 99
2019-04-09 06:00:00 6.6 0 Calma 4 Este 0 -- -- 96
2019-04-09 05:00:00 7.4 3 Este 4 Este 0 -- -- 96
2019-04-09 04:00:00 7.7 0 Calma 4 Este 0 -- -- 95
2019-04-09 03:00:00 9 3 Este 5 Este 0 -- -- 96
2019-04-09 02:00:00 9.9 3 Este 5 Este 0 -- -- 95
2019-04-09 01:00:00 10 3 Este -- -- 0 -- -- 94
2019-04-09 00:00:00 10.2 2 Sudeste 3 Este 0 -- -- 92
2019-04-08 23:00:00 11.6 0 Calma 6 Sudoeste 0 -- -- 91
2019-04-08 22:00:00 13.4 4 Sudoeste 10 Sudoeste 0 -- -- 91
2019-04-08 21:00:00 14.2 6 Sudoeste 19 Sudoeste 0 -- -- 86
2019-04-08 20:00:00 16 12 Sudoeste 25 Sudoeste 0 -- -- 76
2019-04-08 19:00:00 18 13 Sudoeste 31 Sudoeste 0 -- -- 66
2019-04-08 18:00:00 19.2 18 Sudoeste 38 Sudoeste 0 -- -- 60
2019-04-08 17:00:00 19.6 18 Oeste 35 Oeste 0 -- -- 55
2019-04-08 16:00:00 18.3 20 Sudoeste 35 Sudoeste 0 -- -- 62
2019-04-08 15:00:00 19.7 18 Sudoeste 36 Sudoeste 0 -- -- 59
2019-04-08 14:00:00 19.5 19 Sudoeste 33 Sudoeste 0 -- -- 58
2019-04-08 13:00:00 18 15 Sudoeste 28 Sudoeste 0 -- -- 60
2019-04-08 12:00:00 17.9 13 Sudoeste 26 Sudoeste 0 -- -- 60
2019-04-08 11:00:00 17.8 12 Sudoeste 25 Sudoeste 0 -- -- 67
2019-04-08 10:00:00 15.1 9 Sudoeste 16 Sudoeste 0 -- -- 96
2019-04-08 09:00:00 9.5 0 Calma 4 Este 0 -- -- 99
2019-04-08 08:00:00 4.2 0 Calma 4 Nordeste 0 -- -- 98
2019-04-08 07:00:00 3 0 Calma 6 Este 0 -- -- 97
2019-04-08 06:00:00 2.7 3 Este 5 Este 0 -- -- 96
2019-04-08 05:00:00 2.3 2 Este 5 Este 0 -- -- 94
2019-04-08 04:00:00 3.1 -- -- -- -- 0 -- -- 95
2019-04-08 03:00:00 2.9 3 Este 6 Este 0 -- -- 93
2019-04-08 02:00:00 3.7 3 Este 6 Este 0 -- -- 92
2019-04-08 01:00:00 4.8 5 Este 6 Este 0 -- -- 91
2019-04-08 00:00:00 5.1 4 Este 6 Este 0 -- -- 89
2019-04-07 23:00:00 6.1 2 Sudeste 6 Sudeste 0 -- -- 84
2019-04-07 22:00:00 8.1 2 Sudeste 8 Oeste 0 -- -- 75
2019-04-07 21:00:00 10.6 4 Oeste 10 Oeste 0 -- -- 67
2019-04-07 20:00:00 13.5 6 Noroeste 28 Noroeste 0 -- -- 55
2019-04-07 19:00:00 16.3 16 Noroeste 31 Oeste 0 -- -- 47
2019-04-07 18:00:00 17.2 17 Oeste 34 Oeste 0 -- -- 45
2019-04-07 17:00:00 17.4 22 Oeste 38 Oeste 0 -- -- 45
2019-04-07 16:00:00 16.5 20 Oeste 39 Oeste 0 -- -- 47
2019-04-07 15:00:00 14.9 15 Oeste 32 Oeste 0.2 -- -- 61
2019-04-07 14:00:00 17.2 20 Oeste 38 Noroeste 0 -- -- 44
2019-04-07 13:00:00 14.9 15 Oeste 35 Oeste 0 -- -- 57
2019-04-07 12:00:00 14.5 12 Oeste 22 Oeste 0 -- -- 62
2019-04-07 11:00:00 13.7 9 Oeste 37 Oeste 0 -- -- 62
2019-04-07 10:00:00 11.5 10 Oeste 23 Oeste 0 -- -- 77
2019-04-07 09:00:00 10.3 8 Oeste 18 Oeste 0 -- -- 77
2019-04-07 08:00:00 8.9 5 Oeste 12 Oeste 0 -- -- 93
2019-04-07 07:00:00 8.8 3 Sudoeste 10 Oeste 0 -- -- 86
2019-04-07 06:00:00 10.3 5 Oeste 21 Sudoeste 0 -- -- 80
2019-04-07 05:00:00 10.2 8 Oeste 20 Oeste 0 -- -- 87
2019-04-07 04:00:00 6.5 2 Oeste 6 Sudoeste 0 -- -- 92
2019-04-07 03:00:00 6.8 0 Calma 3 Este 0 -- -- 88
2019-04-07 02:00:00 9.3 0 Calma 17 Sudoeste 0 -- -- 81
2019-04-07 01:00:00 11.1 9 Oeste 15 Oeste 0 -- -- 77
2019-04-07 00:00:00 11.3 4 Sudoeste 19 Sudoeste 0 -- -- 73
2019-04-06 23:00:00 12.3 11 Sudoeste 21 Oeste 0 -- -- 72
2019-04-06 22:00:00 12.3 6 Sudoeste 22 Oeste 0 -- -- 71
2019-04-06 21:00:00 13.2 12 Sudoeste 27 Sudoeste 0 -- -- 67
2019-04-06 20:00:00 14.1 16 Sudoeste 32 Sudoeste 0 -- -- 61
2019-04-06 19:00:00 14.6 18 Sudoeste 38 Oeste 0 -- -- 58
2019-04-06 18:00:00 14.7 17 Sudoeste 45 Oeste 0 -- -- 56
2019-04-06 17:00:00 16.5 22 Sudoeste 41 Oeste 0 -- -- 49
2019-04-06 16:00:00 15.6 24 Oeste 43 Sudoeste 0 -- -- 49
2019-04-06 15:00:00 15.3 23 Oeste 45 Oeste 0 -- -- 52
2019-04-06 14:00:00 16.3 24 Oeste 47 Oeste 0 -- -- 54
2019-04-06 13:00:00 15.4 21 Oeste 45 Oeste 0 -- -- 55
2019-04-06 12:00:00 15.2 18 Oeste 38 Oeste 0 -- -- 58
2019-04-06 11:00:00 14.5 21 Oeste 42 Oeste 0 -- -- 61
2019-04-06 10:00:00 13.9 20 Oeste 37 Oeste 0 -- -- 63
2019-04-06 09:00:00 12 18 Oeste 37 Oeste 0 -- -- 67
2019-04-06 08:00:00 11.3 17 Oeste 36 Oeste 0 -- -- 70
2019-04-06 07:00:00 10.7 14 Oeste 33 Sudoeste 0 -- -- 77
2019-04-06 06:00:00 9.1 8 Sudoeste 15 Sudoeste 0 -- -- 94
2019-04-06 05:00:00 9.1 4 Sur 8 Sudoeste 0.2 -- -- 94
2019-04-06 04:00:00 10.1 3 Sudoeste 29 Sudoeste 0.8 -- -- 93
2019-04-06 03:00:00 11.7 9 Sudoeste 30 Sur 1.8 -- -- 92
2019-04-06 02:00:00 12 8 Sudoeste 23 Sudoeste 0 -- -- 93
2019-04-06 01:00:00 11.3 5 Sudoeste 11 Sudoeste 0 -- -- 93
2019-04-06 00:00:00 11.9 4 Sudoeste 29 Sudoeste 0.2 -- -- 90
2019-04-05 23:00:00 13.8 9 Sur 27 Sudoeste 0.4 -- -- 83
2019-04-05 22:00:00 13.7 9 Sudoeste 31 Sudoeste 0.2 -- -- 88
2019-04-05 21:00:00 14.6 11 Sudoeste 27 Sudoeste 0 -- -- 79
2019-04-05 20:00:00 14.7 12 Sur 32 Sur 0 -- -- 75
2019-04-05 19:00:00 15.5 17 Sur 33 Sur 0 -- -- 70
2019-04-05 18:00:00 16.2 18 Sur 34 Sur 0 -- -- 69
2019-04-05 17:00:00 16 16 Sur 33 Sur 0 -- -- 70
2019-04-05 16:00:00 16.5 16 Sur 33 Sur 0 -- -- 64
2019-04-05 15:00:00 17.6 15 Sur 31 Sur 0 -- -- 57
2019-04-05 14:00:00 18.7 15 Sur 30 Sudoeste 0 -- -- 50
2019-04-05 13:00:00 18.6 14 Sudoeste 30 Sudoeste 0 -- -- 47
2019-04-05 12:00:00 17.8 12 Sur 27 Oeste 0 -- -- 48
2019-04-05 11:00:00 16.4 12 Sudoeste 22 Sudoeste 0 -- -- 50
2019-04-05 10:00:00 13.6 9 Sudoeste 18 Sudoeste 0 -- -- 67
2019-04-05 09:00:00 7.3 0 Calma 5 Este 0 -- -- 98
2019-04-05 08:00:00 0.6 2 Nordeste 7 Este 0 -- -- 97
2019-04-05 07:00:00 1.2 5 Este 6 Este 0 -- -- 96
2019-04-05 06:00:00 0.9 4 Este 6 Este 0 -- -- 94
2019-04-05 05:00:00 1 4 Este 5 Este 0 -- -- 94
2019-04-05 04:00:00 1.5 4 Este 6 Este 0 -- -- 93
2019-04-05 03:00:00 2.4 0 Calma 6 Este 0 -- -- 90
2019-04-05 02:00:00 4.5 2 Este 9 Sur 0 -- -- 87
2019-04-05 01:00:00 5.6 5 Sudeste 9 Este 0 -- -- 86
2019-04-05 00:00:00 7.5 5 Este 12 Este 0 -- -- 82
2019-04-04 23:00:00 7.9 6 Este 10 Este 0 -- -- 80
2019-04-04 22:00:00 9.5 7 Este 18 Este 0 -- -- 74
2019-04-04 21:00:00 10.5 9 Este 20 Este 0 -- -- 70
2019-04-04 20:00:00 12.8 13 Este 23 Este 0 -- -- 62
2019-04-04 19:00:00 15.6 15 Este 29 Este 0 -- -- 53
2019-04-04 18:00:00 18.1 11 Este 24 Norte 0 -- -- 45
2019-04-04 17:00:00 19.1 6 Norte 22 Norte 0 -- -- 25
2019-04-04 16:00:00 19.1 9 Noroeste 28 Oeste 0 -- -- 28
2019-04-04 15:00:00 18.2 10 Noroeste 33 Oeste 0 -- -- 27
2019-04-04 14:00:00 17.9 13 Noroeste 27 Oeste 0 -- -- 31
2019-04-04 13:00:00 17.5 11 Noroeste 26 Noroeste 0 -- -- 34
2019-04-04 12:00:00 15.8 11 Noroeste 23 Noroeste 0 -- -- 49
2019-04-04 11:00:00 13.2 9 Noroeste 23 Noroeste 0 -- -- 62
2019-04-04 10:00:00 11.9 5 Oeste 10 Oeste 0 -- -- 77
2019-04-04 09:00:00 9.4 0 Calma 3 Sudoeste 0 -- -- 95
2019-04-04 08:00:00 8.6 0 Calma 5 Oeste 0 -- -- 93
2019-04-04 07:00:00 9.3 0 Calma 8 Sudoeste 0 -- -- 92
2019-04-04 06:00:00 9.8 3 Nordeste 9 Nordeste 0 -- -- 91
2019-04-04 05:00:00 10 5 Nordeste 20 Norte 0 -- -- 92
2019-04-04 04:00:00 10.1 8 Nordeste 21 Nordeste 0 -- -- 93
2019-04-04 03:00:00 10.4 11 Nordeste 34 Nordeste 1.4 -- -- 91
2019-04-04 02:00:00 11.4 19 Nordeste 36 Norte 0 -- -- 85
2019-04-04 01:00:00 12.7 11 Nordeste 25 Nordeste 0 -- -- 86
2019-04-04 00:00:00 11.9 4 Este 6 Este 0 -- -- 94
2019-04-03 23:00:00 13.1 3 Noroeste 7 Sudeste 0 -- -- 93
2019-04-03 22:00:00 13.4 0 Calma 5 Sur 0 -- -- 90
2019-04-03 21:00:00 14.6 2 Sudoeste 13 Sudoeste 0 -- -- 88
2019-04-03 20:00:00 15.2 5 Sudoeste 17 Sudoeste 0 -- -- 83
2019-04-03 19:00:00 16.6 11 Sudoeste 20 Sudoeste 0 -- -- 77
2019-04-03 18:00:00 16.7 10 Sudoeste 29 Sudoeste 0 -- -- 76
2019-04-03 17:00:00 17.8 13 Sudoeste 27 Sudoeste 0 -- -- 76
2019-04-03 16:00:00 17.7 12 Sudoeste 28 Sudoeste 0 -- -- 74
2019-04-03 15:00:00 19.5 17 Sudoeste 32 Sudoeste 0 -- -- 67
2019-04-03 14:00:00 19.3 19 Sudoeste 31 Sudoeste 0 -- -- 66
2019-04-03 13:00:00 18.7 15 Sudoeste 26 Sudoeste 0 -- -- 70
2019-04-03 12:00:00 17.3 14 Sudoeste 28 Sur 0 -- -- 73
2019-04-03 11:00:00 16.9 14 Sudoeste 26 Sur 0 -- -- 75
2019-04-03 10:00:00 15.5 10 Sur 20 Sur 0 -- -- 84
2019-04-03 09:00:00 14.4 9 Sur 16 Sur 0 -- -- 93
2019-04-03 08:00:00 13 4 Sur 8 Sur 0 -- -- 96
2019-04-03 07:00:00 12.7 4 Sur 7 Sur 0 -- -- 97
2019-04-03 06:00:00 12.2 0 Calma 6 Sur 0 -- -- 96
2019-04-03 05:00:00 12.4 3 Sur 5 Sur 0 -- -- 96
2019-04-03 04:00:00 12.8 3 Sudeste 5 Sur 0 -- -- 96
2019-04-03 03:00:00 12.5 2 Noroeste 5 Sur 0 -- -- 96
2019-04-03 02:00:00 11.9 2 Sur 5 Sur 0 -- -- 96
2019-04-03 01:00:00 11.4 2 Este 5 Sur 0 -- -- 93
2019-04-03 00:00:00 13 3 Sur 7 Sur 0 -- -- 95
2019-04-02 23:00:00 12.2 3 Sur 6 Sur 0 -- -- 94
2019-04-02 22:00:00 11.6 4 Sudoeste 8 Sur 0 -- -- 90
2019-04-02 21:00:00 13.2 4 Sur 9 Sudoeste 0 -- -- 87
2019-04-02 20:00:00 15 6 Sudoeste 18 Sudoeste 0 -- -- 82
2019-04-02 19:00:00 16.6 11 Sudoeste 21 Oeste 0 -- -- 74
2019-04-02 18:00:00 17.1 13 Sudoeste 24 Sudoeste 0 -- -- 70
2019-04-02 17:00:00 18.5 14 Sudoeste 28 Oeste 0 -- -- 64
2019-04-02 16:00:00 19 15 Sudoeste 29 Oeste 0 -- -- 60
2019-04-02 15:00:00 19.2 15 Sudoeste 30 Oeste 0 -- -- 62
2019-04-02 14:00:00 18.9 17 Sudoeste 27 Sudoeste 0 -- -- 59
2019-04-02 13:00:00 17.8 15 Sudoeste 30 Sudoeste 0 -- -- 65
2019-04-02 12:00:00 17.2 15 Sudoeste 24 Sudoeste 0 -- -- 70
2019-04-02 11:00:00 17.6 11 Sur 20 Sur 0 -- -- 72
2019-04-02 10:00:00 15.6 8 Sudoeste 13 Oeste 0 -- -- 89
2019-04-02 09:00:00 10.2 2 Este 4 Este 0 -- -- 100
2019-04-02 08:00:00 4.9 2 Este 4 Este 0 -- -- 96
2019-04-02 07:00:00 5.7 4 Este 5 Este 0 -- -- 96
2019-04-02 06:00:00 6 4 Este 5 Este 0 -- -- 95
2019-04-02 05:00:00 6.2 3 Este 4 Este 0 -- -- 94
2019-04-02 04:00:00 7.4 3 Este 4 Este 0 -- -- 94
2019-04-02 03:00:00 8.2 2 Sur 5 Este 0 -- -- 93
2019-04-02 02:00:00 9.1 3 Este 5 Este 0 -- -- 91
2019-04-02 01:00:00 10 2 Este 4 Este 0 -- -- 91
2019-04-02 00:00:00 10.8 0 Calma 2 Sudoeste 0 -- -- 89
2019-04-01 23:00:00 12 2 Sudoeste 4 Sur 0 -- -- 84
2019-04-01 22:00:00 13.2 0 Calma 3 Sudoeste 0 -- -- 83
2019-04-01 21:00:00 13.9 2 Sudoeste 4 Sudoeste 0 -- -- 81
2019-04-01 20:00:00 15 2 Sudeste 9 Sudeste 0 -- -- 77
2019-04-01 19:00:00 15.7 6 Sudeste 16 Sudeste 0 -- -- 74
2019-04-01 18:00:00 16.2 8 Sudeste 23 Sudeste 0 -- -- 71
2019-04-01 17:00:00 17.7 14 Este 24 Sudeste 0 -- -- 61
2019-04-01 16:00:00 19.7 13 Este 23 Este 0 -- -- 53
2019-04-01 15:00:00 21.8 6 Este 21 Norte 0 -- -- 44
2019-04-01 14:00:00 21.2 8 Este 23 Este 0 -- -- 46
2019-04-01 13:00:00 18 7 Nordeste 15 Nordeste 0 -- -- 60
2019-04-01 12:00:00 15.6 8 Nordeste 16 Nordeste 0 -- -- 73
2019-04-01 11:00:00 14.4 7 Nordeste 16 Nordeste 0 -- -- 77
2019-04-01 10:00:00 13.9 4 Norte 14 Nordeste 0 -- -- 86
2019-04-01 09:00:00 13.1 5 Nordeste 13 Norte 0 -- -- 88
2019-04-01 08:00:00 12.7 4 Nordeste 13 Nordeste 0 -- -- 89
2019-04-01 07:00:00 13.1 5 Nordeste 15 Nordeste 0 -- -- 88
2019-04-01 06:00:00 13 7 Nordeste 17 Nordeste 0 -- -- 88
2019-04-01 05:00:00 13 7 Nordeste 14 Este 0 -- -- 89
2019-04-01 04:00:00 13.1 4 Nordeste 24 Este 0 -- -- 88
2019-04-01 03:00:00 13.3 7 Nordeste 21 Nordeste 0 -- -- 88
2019-04-01 02:00:00 13.3 10 Este 22 Nordeste 0 -- -- 89
2019-04-01 01:00:00 13.4 10 Nordeste 23 Este 0 -- -- 89
2019-04-01 00:00:00 13.4 8 Nordeste 18 Este 0 -- -- 91
2019-03-31 23:00:00 13.4 10 Nordeste 20 Este 0 -- -- 92
2019-03-31 22:00:00 13.5 9 Este 21 Nordeste 0.2 -- -- 93
2019-03-31 21:00:00 13.8 12 Nordeste 26 Nordeste 0 -- -- 92
2019-03-31 20:00:00 14.3 10 Nordeste 19 Nordeste 0 -- -- 90
2019-03-31 19:00:00 15.2 12 Nordeste 22 Este 0 -- -- 86
2019-03-31 18:00:00 16 14 Este 27 Este 0 -- -- 82
2019-03-31 17:00:00 16.6 17 Este 32 Este 0 -- -- 79
2019-03-31 16:00:00 17.4 19 Este 33 Este 0 -- -- 77
2019-03-31 15:00:00 17.7 17 Este 37 Este 0 -- -- 76
2019-03-31 14:00:00 18 20 Este 38 Este 0 -- -- 75
2019-03-31 13:00:00 18.3 19 Este 37 Este 0 -- -- 72
2019-03-31 12:00:00 17 19 Este 34 Nordeste 0 -- -- 76
2019-03-31 11:00:00 16.3 16 Este 34 Nordeste 0 -- -- 77
2019-03-31 10:00:00 15.8 12 Nordeste 27 Este 0 -- -- 79
2019-03-31 09:00:00 13.6 12 Nordeste 21 Nordeste 0 -- -- 97
2019-03-31 08:00:00 11.5 6 Nordeste 14 Norte 0 -- -- 98
2019-03-31 07:00:00 10.7 4 Nordeste 13 Nordeste 0 -- -- 98
2019-03-31 06:00:00 10.4 5 Nordeste 15 Nordeste 0 -- -- 97
2019-03-31 05:00:00 10.7 6 Nordeste 17 Nordeste 0 -- -- 97
2019-03-31 03:00:00 9.4 4 Nordeste 10 Nordeste 0 -- -- 96
2019-03-31 01:00:00 8.6 2 Este 6 Nordeste 0 -- -- 94
2019-03-31 00:00:00 9.7 3 Nordeste 7 Nordeste 0 -- -- 94
2019-03-30 23:00:00 9.7 3 Este 6 Nordeste 0 -- -- 90
2019-03-30 22:00:00 11.3 2 Nordeste 8 Nordeste 0 -- -- 89
2019-03-30 21:00:00 12.7 4 Nordeste 14 Nordeste 0 -- -- 87
2019-03-30 20:00:00 13.2 6 Nordeste 21 Nordeste 0 -- -- 86
2019-03-30 19:00:00 14.6 12 Este 26 Este 0 -- -- 80
2019-03-30 18:00:00 15.7 13 Este 25 Este 0 -- -- 72
2019-03-30 17:00:00 16.9 15 Este 27 Este 0 -- -- 68
2019-03-30 16:00:00 17.6 13 Este 25 Nordeste 0 -- -- 64
2019-03-30 15:00:00 17.6 13 Este 28 Este 0 -- -- 65
2019-03-30 14:00:00 17.8 15 Este 33 Este 0 -- -- 62
2019-03-30 13:00:00 18.5 12 Este 30 Sudeste 0 -- -- 59
2019-03-30 12:00:00 18.1 14 Este 27 Este 0 -- -- 59
2019-03-30 11:00:00 18.1 14 Este 26 Este 0 -- -- 58
2019-03-30 10:00:00 16.9 14 Este 25 Este 0 -- -- 61
2019-03-30 09:00:00 13.9 5 Norte 10 Nordeste 0 -- -- 74
2019-03-30 08:00:00 9.7 4 Nordeste 9 Nordeste 0 -- -- 93
2019-03-30 07:00:00 5.6 3 Este 8 Nordeste 0 -- -- 93
2019-03-30 06:00:00 7.3 4 Nordeste 12 Nordeste 0 -- -- 93
2019-03-30 05:00:00 8 2 Nordeste 8 Nordeste 0 -- -- 92
2019-03-30 04:00:00 7.8 3 Nordeste 5 Nordeste 0 -- -- 94
2019-03-30 03:00:00 7.8 2 Nordeste 8 Norte 0 -- -- 94
2019-03-30 02:00:00 7.3 2 Este 5 Nordeste 0 -- -- 95
2019-03-30 01:00:00 5.1 3 Este 4 Nordeste 0 -- -- 93
2019-03-30 00:00:00 4.4 2 Este 4 Este 0 -- -- 90
2019-03-29 23:00:00 5.6 3 Este -- -- 0 -- -- 89
2019-03-29 22:00:00 6 0 Calma 3 Nordeste 0 -- -- 86
2019-03-29 21:00:00 8 2 Nordeste 6 Nordeste 0 -- -- 82
2019-03-29 20:00:00 10.8 2 Nordeste 13 Este 0 -- -- 77
2019-03-29 19:00:00 13.2 9 Este 20 Nordeste 0 -- -- 69
2019-03-29 18:00:00 16.2 13 Este 27 Este 0 -- -- 58
2019-03-29 17:00:00 17.6 17 Este 27 Este 0 -- -- 52
2019-03-29 16:00:00 18.6 13 Este 27 Nordeste 0 -- -- 49
2019-03-29 15:00:00 19.1 16 Este 28 Este 0 -- -- 45
2019-03-29 14:00:00 19.3 9 Este 30 Este 0 -- -- 43
2019-03-29 13:00:00 19 13 Nordeste 29 Este 0 -- -- 40
2019-03-29 12:00:00 18.4 14 Nordeste 32 Este 0 -- -- 45
2019-03-29 11:00:00 17.8 13 Nordeste 28 Este 0 -- -- 51
2019-03-29 10:00:00 16.6 13 Nordeste 26 Norte 0 -- -- 57
2019-03-29 09:00:00 12.2 3 Norte 8 Norte 0 -- -- 93
2019-03-29 08:00:00 5.2 0 Calma 6 Sudeste 0 -- -- 99
2019-03-29 07:00:00 -0.7 0 Calma 3 Este 0 -- -- 95
2019-03-29 06:00:00 -0.2 3 Este 4 Este 0 -- -- 94
2019-03-29 05:00:00 -0.1 3 Este 4 Este 0 -- -- 94
2019-03-29 04:00:00 0.7 3 Nordeste 4 Este 0 -- -- 93
2019-03-29 03:00:00 1.4 3 Este 4 Nordeste 0 -- -- 93
2019-03-29 02:00:00 2.6 2 Este 5 Este 0 -- -- 93
2019-03-29 01:00:00 3.4 4 Este 7 Este 0 -- -- 92
2019-03-29 00:00:00 3.6 4 Este 6 Este 0 -- -- 91
2019-03-28 23:00:00 3.7 4 Este 5 Este 0 -- -- 87
2019-03-28 22:00:00 4.8 0 Calma 3 Este 0 -- -- 81
2019-03-28 21:00:00 7.3 0 Calma 4 Nordeste 0 -- -- 72
2019-03-28 20:00:00 10.8 3 Nordeste 11 Este 0 -- -- 67
2019-03-28 19:00:00 13.3 8 Este 22 Este 0 -- -- 60
2019-03-28 18:00:00 16.5 13 Este 26 Este 0 -- -- 55
2019-03-28 17:00:00 17.1 13 Nordeste 28 Este 0 -- -- 51
2019-03-28 16:00:00 18.4 13 Nordeste 30 Este 0 -- -- 46
2019-03-28 15:00:00 19.4 12 Este 29 Este 0 -- -- 45
2019-03-28 14:00:00 20.6 13 Nordeste 32 Nordeste 0 -- -- 34
2019-03-28 13:00:00 20.1 16 Nordeste 32 Nordeste 0 -- -- 34
2019-03-28 12:00:00 19.6 14 Nordeste 33 Nordeste 0 -- -- 40
2019-03-28 11:00:00 18.3 13 Norte 28 Nordeste 0 -- -- 42
2019-03-28 10:00:00 16.4 8 Norte 27 Norte 0 -- -- 56
2019-03-28 09:00:00 13.2 9 Nordeste 17 Norte 0 -- -- 81
2019-03-28 08:00:00 5.5 2 Nordeste 5 Nordeste 0 -- -- 99
2019-03-28 07:00:00 -0.5 0 Calma 4 Nordeste 0 -- -- 95
2019-03-28 06:00:00 -0.6 3 Nordeste 5 Norte 0 -- -- 94
2019-03-28 05:00:00 -0.2 2 Este 5 Sudoeste 0 -- -- 94
2019-03-28 04:00:00 0.3 2 Sudoeste 4 Este 0 -- -- 93
2019-03-28 03:00:00 1 2 Norte 3 Norte 0 -- -- 92
2019-03-28 02:00:00 2.4 0 Calma 10 Nordeste 0 -- -- 92
2019-03-28 01:00:00 2.6 5 Nordeste 8 Este 0 -- -- 91
2019-03-28 00:00:00 3.6 4 Este 5 Nordeste 0 -- -- 89
2019-03-27 23:00:00 4.9 3 Nordeste 6 Nordeste 0 -- -- 88
2019-03-27 22:00:00 6.1 3 Nordeste 8 Norte 0 -- -- 86
2019-03-27 21:00:00 7.6 0 Calma 9 Nordeste 0 -- -- 78
2019-03-27 20:00:00 10.1 5 Norte 18 Norte 0 -- -- 73
2019-03-27 19:00:00 12.3 6 Norte 24 Norte 0 -- -- 65
2019-03-27 18:00:00 15.3 12 Norte 27 Norte 0 -- -- 51
2019-03-27 17:00:00 17.2 11 Norte 28 Norte 0 -- -- 44
2019-03-27 16:00:00 18.2 15 Norte 33 Noroeste 0 -- -- 39
2019-03-27 15:00:00 18.5 16 Norte 33 Norte 0 -- -- 41
2019-03-27 14:00:00 18.7 16 Norte 33 Norte 0 -- -- 41
2019-03-27 13:00:00 18.9 15 Norte 36 Norte 0 -- -- 41
2019-03-27 12:00:00 18.2 16 Norte 31 Noroeste 0 -- -- 41
2019-03-27 11:00:00 17.4 15 Norte 32 Norte 0 -- -- 47
2019-03-27 10:00:00 16.2 14 Nordeste 30 Nordeste 0 -- -- 52
2019-03-27 09:00:00 13.9 14 Norte 32 Nordeste 0 -- -- 72
2019-03-27 08:00:00 6.8 3 Norte 7 Norte 0 -- -- 99
2019-03-27 07:00:00 1.7 2 Este 7 Nordeste 0 -- -- 96
2019-03-27 06:00:00 0.5 3 Nordeste 6 Nordeste 0 -- -- 95
2019-03-27 05:00:00 0.2 2 Nordeste 8 Nordeste 0 -- -- 95
2019-03-27 04:00:00 -0.3 3 Este 5 Este 0 -- -- 93
2019-03-27 03:00:00 0.4 2 Norte 5 Este 0 -- -- 93
2019-03-27 02:00:00 0.7 4 Este 5 Este 0 -- -- 92
2019-03-27 01:00:00 1.1 2 Este 6 Este 0 -- -- 90
2019-03-27 00:00:00 1.7 3 Este 6 Este 0 -- -- 90
2019-03-26 23:00:00 2 3 Este 4 Este 0 -- -- 85
2019-03-26 22:00:00 3.5 4 Este 5 Este 0 -- -- 82
2019-03-26 21:00:00 5.6 3 Este 5 Este 0 -- -- 72
2019-03-26 20:00:00 9.3 3 Nordeste 21 Nordeste 0 -- -- 64
2019-03-26 19:00:00 11.6 10 Nordeste 29 Nordeste 0 -- -- 56
2019-03-26 18:00:00 13.7 15 Nordeste 30 Nordeste 0 -- -- 49
2019-03-26 17:00:00 15.4 13 Nordeste 46 Nordeste 0 -- -- 48
2019-03-26 16:00:00 15.3 16 Nordeste 46 Norte 0 -- -- 46
2019-03-26 15:00:00 15.7 22 Norte 47 Nordeste 0 -- -- 43
2019-03-26 14:00:00 15.7 20 Nordeste 50 Nordeste 0 -- -- 43
2019-03-26 13:00:00 15.8 27 Norte 50 Norte 0 -- -- 39
2019-03-26 12:00:00 16 22 Norte 58 Nordeste 0 -- -- 35
2019-03-26 11:00:00 15.6 24 Nordeste 53 Norte 0 -- -- 37
2019-03-26 10:00:00 15.4 21 Norte 50 Nordeste 0 -- -- 38
2019-03-26 09:00:00 14 18 Norte 43 Norte 0 -- -- 42
2019-03-26 08:00:00 9.7 5 Nordeste 18 Nordeste 0 -- -- 89
2019-03-26 07:00:00 7.4 7 Nordeste 14 Nordeste 0 -- -- 98
2019-03-26 06:00:00 7.3 4 Nordeste 13 Este 0 -- -- 98
2019-03-26 05:00:00 6.7 5 Nordeste 11 Nordeste 0 -- -- 98
2019-03-26 04:00:00 4.1 4 Este 6 Este 0 -- -- 96
2019-03-26 03:00:00 4.5 3 Este 5 Nordeste 0 -- -- 95
2019-03-26 02:00:00 5.4 2 Este 10 Nordeste 0 -- -- 95
2019-03-26 01:00:00 5.3 2 Nordeste 5 Nordeste 0 -- -- 94
2019-03-26 00:00:00 5.5 4 Este 5 Este 0 -- -- 92
2019-03-25 23:00:00 6.3 3 Este 4 Este 0 -- -- 90
2019-03-25 22:00:00 7.8 0 Calma 6 Norte 0 -- -- 86
2019-03-25 21:00:00 9.5 2 Nordeste 8 Sudeste 0 -- -- 84
2019-03-25 20:00:00 12 0 Calma 12 Este 0 -- -- 72
2019-03-25 19:00:00 15.3 8 Este 24 Sudeste 0 -- -- 65
2019-03-25 18:00:00 18.5 13 Este 22 Este 0 -- -- 47
2019-03-25 17:00:00 20.6 12 Este 22 Este 0 -- -- 42
2019-03-25 16:00:00 21.5 15 Este 27 Este 0 -- -- 37
2019-03-25 15:00:00 22.3 16 Este 31 Este 0 -- -- 37
2019-03-25 14:00:00 22.4 20 Este 33 Este 0 -- -- 36
2019-03-25 13:00:00 22.7 19 Nordeste 30 Este 0 -- -- 36
2019-03-25 12:00:00 22.7 16 Este 31 Este 0 -- -- 37
2019-03-25 11:00:00 21.6 13 Nordeste 28 Norte 0 -- -- 39
2019-03-25 10:00:00 18 5 Norte 10 Norte 0 -- -- 64
2019-03-25 09:00:00 12.6 2 Nordeste 7 Este 0 -- -- 98
2019-03-25 08:00:00 7.5 3 Este 5 Nordeste 0 -- -- 100
2019-03-25 07:00:00 3 3 Este 7 Nordeste 0 -- -- 98
2019-03-25 06:00:00 3.3 3 Este 8 Este 0 -- -- 97
2019-03-25 05:00:00 2.8 4 Este 5 Este 0 -- -- 97
2019-03-25 04:00:00 3.7 2 Este 6 Nordeste 0 -- -- 96
2019-03-25 03:00:00 4.5 2 Nordeste 6 Nordeste 0 -- -- 96
2019-03-25 02:00:00 4.3 0 Calma 4 Este 0 -- -- 95
2019-03-25 01:00:00 5.6 3 Este 5 Este 0 -- -- 95
2019-03-25 00:00:00 6.3 4 Este 5 Este 0 -- -- 95